Aviation Digital Data Service (ADDS)

Output produced by TAFs form (1052 UTC 13 February 2016)
found at http://aviationweather.gov/adds/tafs/
 
KROW 130539Z 1306/1406 VRB05KT P6SM SKC 
     FM131800 16010KT P6SM SKC 
     FM140200 24008KT P6SM FEW250